sensor_id;sensor_type;location;lat;lon;timestamp;P1;durP1;ratioP1;P2;durP2;ratioP2
19087;SDS011;9676;50.916;13.352;2023-10-09T00:02:35;13.30;;;10.17;;
19087;SDS011;9676;50.916;13.352;2023-10-09T00:05:30;10.30;;;9.40;;
19087;SDS011;9676;50.916;13.352;2023-10-09T00:08:33;10.80;;;9.80;;
19087;SDS011;9676;50.916;13.352;2023-10-09T00:11:26;10.50;;;9.60;;
19087;SDS011;9676;50.916;13.352;2023-10-09T00:14:17;10.50;;;9.60;;
19087;SDS011;9676;50.916;13.352;2023-10-09T00:17:07;10.30;;;9.40;;
19087;SDS011;9676;50.916;13.352;2023-10-09T00:20:09;10.60;;;9.70;;
19087;SDS011;9676;50.916;13.352;2023-10-09T00:23:12;10.97;;;9.93;;
19087;SDS011;9676;50.916;13.352;2023-10-09T00:26:03;10.03;;;9.23;;
19087;SDS011;9676;50.916;13.352;2023-10-09T00:29:08;10.90;;;9.90;;
19087;SDS011;9676;50.916;13.352;2023-10-09T00:32:02;11.20;;;10.10;;
19087;SDS011;9676;50.916;13.352;2023-10-09T00:35:00;10.80;;;9.90;;
19087;SDS011;9676;50.916;13.352;2023-10-09T00:38:10;10.60;;;9.70;;
19087;SDS011;9676;50.916;13.352;2023-10-09T00:41:10;10.80;;;9.90;;
19087;SDS011;9676;50.916;13.352;2023-10-09T00:44:06;10.80;;;9.90;;
19087;SDS011;9676;50.916;13.352;2023-10-09T00:47:02;11.27;;;10.17;;
19087;SDS011;9676;50.916;13.352;2023-10-09T00:50:08;11.30;;;10.30;;
19087;SDS011;9676;50.916;13.352;2023-10-09T00:53:08;10.90;;;9.90;;
19087;SDS011;9676;50.916;13.352;2023-10-09T00:56:00;12.10;;;11.00;;
19087;SDS011;9676;50.916;13.352;2023-10-09T00:58:58;11.70;;;10.70;;
19087;SDS011;9676;50.916;13.352;2023-10-09T01:01:57;11.93;;;10.73;;
19087;SDS011;9676;50.916;13.352;2023-10-09T01:04:52;11.10;;;10.10;;
19087;SDS011;9676;50.916;13.352;2023-10-09T01:07:43;11.17;;;10.17;;
19087;SDS011;9676;50.916;13.352;2023-10-09T01:10:43;11.60;;;10.57;;
19087;SDS011;9676;50.916;13.352;2023-10-09T01:13:38;11.20;;;10.20;;
19087;SDS011;9676;50.916;13.352;2023-10-09T01:16:40;11.10;;;10.10;;
19087;SDS011;9676;50.916;13.352;2023-10-09T01:19:32;11.07;;;10.07;;
19087;SDS011;9676;50.916;13.352;2023-10-09T01:22:21;11.00;;;10.00;;
19087;SDS011;9676;50.916;13.352;2023-10-09T01:25:12;11.23;;;10.23;;
19087;SDS011;9676;50.916;13.352;2023-10-09T01:28:03;10.83;;;9.93;;
19087;SDS011;9676;50.916;13.352;2023-10-09T01:30:53;10.40;;;9.50;;
19087;SDS011;9676;50.916;13.352;2023-10-09T01:33:42;11.00;;;10.00;;
19087;SDS011;9676;50.916;13.352;2023-10-09T01:36:32;10.60;;;9.70;;
19087;SDS011;9676;50.916;13.352;2023-10-09T01:39:26;10.80;;;9.80;;
19087;SDS011;9676;50.916;13.352;2023-10-09T01:42:17;10.90;;;9.90;;
19087;SDS011;9676;50.916;13.352;2023-10-09T01:45:15;11.07;;;10.03;;
19087;SDS011;9676;50.916;13.352;2023-10-09T01:48:14;11.17;;;10.17;;
19087;SDS011;9676;50.916;13.352;2023-10-09T01:51:13;11.80;;;10.70;;
19087;SDS011;9676;50.916;13.352;2023-10-09T01:54:05;10.80;;;9.80;;
19087;SDS011;9676;50.916;13.352;2023-10-09T01:56:54;12.03;;;10.83;;
19087;SDS011;9676;50.916;13.352;2023-10-09T01:59:45;11.70;;;10.60;;
19087;SDS011;9676;50.916;13.352;2023-10-09T02:02:36;12.10;;;10.90;;
19087;SDS011;9676;50.916;13.352;2023-10-09T02:05:31;11.37;;;10.27;;
19087;SDS011;9676;50.916;13.352;2023-10-09T02:08:23;12.23;;;11.03;;
19087;SDS011;9676;50.916;13.352;2023-10-09T02:11:14;11.10;;;10.10;;
19087;SDS011;9676;50.916;13.352;2023-10-09T02:14:11;11.77;;;10.60;;
19087;SDS011;9676;50.916;13.352;2023-10-09T02:17:09;12.20;;;11.00;;
19087;SDS011;9676;50.916;13.352;2023-10-09T02:20:05;11.80;;;10.70;;
19087;SDS011;9676;50.916;13.352;2023-10-09T02:23:16;11.27;;;10.17;;
19087;SDS011;9676;50.916;13.352;2023-10-09T02:26:08;11.50;;;10.40;;
19087;SDS011;9676;50.916;13.352;2023-10-09T02:29:05;13.40;;;10.60;;
19087;SDS011;9676;50.916;13.352;2023-10-09T02:32:02;11.83;;;10.73;;
19087;SDS011;9676;50.916;13.352;2023-10-09T02:35:02;14.90;;;10.60;;
19087;SDS011;9676;50.916;13.352;2023-10-09T02:37:57;11.60;;;10.50;;
19087;SDS011;9676;50.916;13.352;2023-10-09T02:40:47;12.03;;;10.83;;
19087;SDS011;9676;50.916;13.352;2023-10-09T02:44:05;11.30;;;10.20;;
19087;SDS011;9676;50.916;13.352;2023-10-09T02:46:59;11.70;;;10.70;;
19087;SDS011;9676;50.916;13.352;2023-10-09T02:49:59;12.43;;;11.13;;
19087;SDS011;9676;50.916;13.352;2023-10-09T02:52:55;12.10;;;11.00;;
19087;SDS011;9676;50.916;13.352;2023-10-09T02:55:55;11.60;;;10.50;;
19087;SDS011;9676;50.916;13.352;2023-10-09T02:58:59;12.50;;;11.20;;
19087;SDS011;9676;50.916;13.352;2023-10-09T03:01:53;11.83;;;10.67;;
19087;SDS011;9676;50.916;13.352;2023-10-09T03:04:42;12.07;;;10.97;;
19087;SDS011;9676;50.916;13.352;2023-10-09T03:07:32;12.70;;;11.40;;
19087;SDS011;9676;50.916;13.352;2023-10-09T03:10:23;12.40;;;10.87;;
19087;SDS011;9676;50.916;13.352;2023-10-09T03:13:13;12.17;;;11.07;;
19087;SDS011;9676;50.916;13.352;2023-10-09T03:16:08;12.77;;;11.50;;
19087;SDS011;9676;50.916;13.352;2023-10-09T03:19:01;13.07;;;11.73;;
19087;SDS011;9676;50.916;13.352;2023-10-09T03:21:51;12.97;;;11.57;;
19087;SDS011;9676;50.916;13.352;2023-10-09T03:24:41;13.27;;;11.30;;
19087;SDS011;9676;50.916;13.352;2023-10-09T03:27:39;13.17;;;11.87;;
19087;SDS011;9676;50.916;13.352;2023-10-09T03:30:32;12.63;;;11.33;;
19087;SDS011;9676;50.916;13.352;2023-10-09T03:33:22;13.67;;;11.80;;
19087;SDS011;9676;50.916;13.352;2023-10-09T03:36:12;12.27;;;11.17;;
19087;SDS011;9676;50.916;13.352;2023-10-09T03:39:04;12.87;;;11.47;;
19087;SDS011;9676;50.916;13.352;2023-10-09T03:42:05;12.83;;;11.57;;
19087;SDS011;9676;50.916;13.352;2023-10-09T03:45:05;12.80;;;11.60;;
19087;SDS011;9676;50.916;13.352;2023-10-09T03:48:06;12.73;;;11.30;;
19087;SDS011;9676;50.916;13.352;2023-10-09T03:51:03;13.33;;;12.03;;
19087;SDS011;9676;50.916;13.352;2023-10-09T03:53:58;15.63;;;12.20;;
19087;SDS011;9676;50.916;13.352;2023-10-09T03:56:53;13.60;;;12.20;;
19087;SDS011;9676;50.916;13.352;2023-10-09T03:59:46;17.20;;;12.17;;
19087;SDS011;9676;50.916;13.352;2023-10-09T04:02:40;14.33;;;12.40;;
19087;SDS011;9676;50.916;13.352;2023-10-09T04:05:30;14.07;;;11.57;;
19087;SDS011;9676;50.916;13.352;2023-10-09T04:08:19;13.50;;;12.10;;
19087;SDS011;9676;50.916;13.352;2023-10-09T04:11:09;13.33;;;11.93;;
19087;SDS011;9676;50.916;13.352;2023-10-09T04:14:03;13.13;;;11.83;;
19087;SDS011;9676;50.916;13.352;2023-10-09T04:16:59;15.37;;;11.93;;
19087;SDS011;9676;50.916;13.352;2023-10-09T04:19:54;14.37;;;12.87;;
19087;SDS011;9676;50.916;13.352;2023-10-09T04:22:58;13.73;;;12.33;;
19087;SDS011;9676;50.916;13.352;2023-10-09T04:25:53;14.30;;;12.23;;
19087;SDS011;9676;50.916;13.352;2023-10-09T04:28:44;14.13;;;12.70;;
19087;SDS011;9676;50.916;13.352;2023-10-09T04:31:38;14.27;;;12.87;;
19087;SDS011;9676;50.916;13.352;2023-10-09T04:34:28;13.70;;;11.97;;
19087;SDS011;9676;50.916;13.352;2023-10-09T04:37:23;13.60;;;12.10;;
19087;SDS011;9676;50.916;13.352;2023-10-09T04:40:24;13.57;;;12.17;;
19087;SDS011;9676;50.916;13.352;2023-10-09T04:43:27;13.70;;;12.20;;
19087;SDS011;9676;50.916;13.352;2023-10-09T04:46:16;13.57;;;12.13;;
19087;SDS011;9676;50.916;13.352;2023-10-09T04:49:10;13.13;;;11.73;;
19087;SDS011;9676;50.916;13.352;2023-10-09T04:52:14;16.10;;;12.47;;
19087;SDS011;9676;50.916;13.352;2023-10-09T04:55:08;15.67;;;12.10;;
19087;SDS011;9676;50.916;13.352;2023-10-09T04:58:06;13.30;;;11.90;;
19087;SDS011;9676;50.916;13.352;2023-10-09T05:01:01;19.33;;;12.30;;
19087;SDS011;9676;50.916;13.352;2023-10-09T05:03:52;14.40;;;12.10;;
19087;SDS011;9676;50.916;13.352;2023-10-09T05:06:44;14.40;;;12.63;;
19087;SDS011;9676;50.916;13.352;2023-10-09T05:09:43;15.33;;;12.90;;
19087;SDS011;9676;50.916;13.352;2023-10-09T05:12:44;15.23;;;12.40;;
19087;SDS011;9676;50.916;13.352;2023-10-09T05:15:44;16.90;;;12.50;;
19087;SDS011;9676;50.916;13.352;2023-10-09T05:18:33;15.27;;;12.40;;
19087;SDS011;9676;50.916;13.352;2023-10-09T05:21:25;13.60;;;12.20;;
19087;SDS011;9676;50.916;13.352;2023-10-09T05:24:24;14.73;;;12.10;;
19087;SDS011;9676;50.916;13.352;2023-10-09T05:27:16;14.20;;;12.40;;
19087;SDS011;9676;50.916;13.352;2023-10-09T05:30:31;16.83;;;12.60;;
19087;SDS011;9676;50.916;13.352;2023-10-09T05:33:21;14.10;;;12.23;;
19087;SDS011;9676;50.916;13.352;2023-10-09T05:36:17;20.23;;;13.37;;
19087;SDS011;9676;50.916;13.352;2023-10-09T05:39:19;17.47;;;13.10;;
19087;SDS011;9676;50.916;13.352;2023-10-09T05:42:29;13.67;;;12.37;;
19087;SDS011;9676;50.916;13.352;2023-10-09T05:45:32;15.97;;;12.50;;
19087;SDS011;9676;50.916;13.352;2023-10-09T05:48:39;15.20;;;12.50;;
19087;SDS011;9676;50.916;13.352;2023-10-09T05:51:42;16.93;;;12.50;;
19087;SDS011;9676;50.916;13.352;2023-10-09T05:54:30;14.83;;;12.93;;
19087;SDS011;9676;50.916;13.352;2023-10-09T05:57:49;13.97;;;12.57;;
19087;SDS011;9676;50.916;13.352;2023-10-09T06:00:57;14.60;;;12.57;;
19087;SDS011;9676;50.916;13.352;2023-10-09T06:04:04;16.57;;;13.20;;
19087;SDS011;9676;50.916;13.352;2023-10-09T06:07:03;15.00;;;13.27;;
19087;SDS011;9676;50.916;13.352;2023-10-09T06:10:01;16.30;;;13.63;;
19087;SDS011;9676;50.916;13.352;2023-10-09T06:13:04;21.50;;;15.60;;
19087;SDS011;9676;50.916;13.352;2023-10-09T06:15:54;17.30;;;13.77;;
19087;SDS011;9676;50.916;13.352;2023-10-09T06:19:09;15.03;;;13.47;;
19087;SDS011;9676;50.916;13.352;2023-10-09T06:22:00;20.80;;;14.13;;
19087;SDS011;9676;50.916;13.352;2023-10-09T06:25:28;14.50;;;13.00;;
19087;SDS011;9676;50.916;13.352;2023-10-09T06:28:21;18.83;;;13.80;;
19087;SDS011;9676;50.916;13.352;2023-10-09T06:31:20;16.23;;;13.73;;
19087;SDS011;9676;50.916;13.352;2023-10-09T06:34:35;15.37;;;12.60;;
19087;SDS011;9676;50.916;13.352;2023-10-09T06:37:32;16.00;;;13.10;;
19087;SDS011;9676;50.916;13.352;2023-10-09T06:40:26;16.07;;;13.37;;
19087;SDS011;9676;50.916;13.352;2023-10-09T06:43:33;16.87;;;13.50;;
19087;SDS011;9676;50.916;13.352;2023-10-09T06:46:30;18.57;;;13.53;;
19087;SDS011;9676;50.916;13.352;2023-10-09T06:49:32;18.50;;;13.30;;
19087;SDS011;9676;50.916;13.352;2023-10-09T06:52:25;19.40;;;13.77;;
19087;SDS011;9676;50.916;13.352;2023-10-09T06:55:35;15.57;;;13.67;;
19087;SDS011;9676;50.916;13.352;2023-10-09T06:58:35;18.00;;;14.10;;
19087;SDS011;9676;50.916;13.352;2023-10-09T07:01:30;15.63;;;13.07;;
19087;SDS011;9676;50.916;13.352;2023-10-09T07:04:30;15.00;;;12.97;;
19087;SDS011;9676;50.916;13.352;2023-10-09T07:07:24;20.93;;;13.80;;
19087;SDS011;9676;50.916;13.352;2023-10-09T07:10:13;14.80;;;13.13;;
19087;SDS011;9676;50.916;13.352;2023-10-09T07:13:17;15.30;;;13.70;;
19087;SDS011;9676;50.916;13.352;2023-10-09T07:16:06;15.47;;;13.80;;
19087;SDS011;9676;50.916;13.352;2023-10-09T07:19:16;14.17;;;12.50;;
19087;SDS011;9676;50.916;13.352;2023-10-09T07:22:24;14.00;;;12.50;;
19087;SDS011;9676;50.916;13.352;2023-10-09T07:25:17;16.20;;;12.80;;
19087;SDS011;9676;50.916;13.352;2023-10-09T07:28:28;17.80;;;13.70;;
19087;SDS011;9676;50.916;13.352;2023-10-09T07:31:24;15.03;;;13.43;;
19087;SDS011;9676;50.916;13.352;2023-10-09T07:34:14;15.83;;;13.30;;
19087;SDS011;9676;50.916;13.352;2023-10-09T07:37:20;16.17;;;13.90;;
19087;SDS011;9676;50.916;13.352;2023-10-09T07:40:12;16.67;;;13.80;;
19087;SDS011;9676;50.916;13.352;2023-10-09T07:43:02;19.40;;;13.63;;
19087;SDS011;9676;50.916;13.352;2023-10-09T07:45:53;15.80;;;14.10;;
19087;SDS011;9676;50.916;13.352;2023-10-09T07:48:47;19.10;;;13.73;;
19087;SDS011;9676;50.916;13.352;2023-10-09T07:51:40;19.00;;;14.90;;
19087;SDS011;9676;50.916;13.352;2023-10-09T07:54:31;16.23;;;14.00;;
19087;SDS011;9676;50.916;13.352;2023-10-09T07:57:21;19.37;;;14.00;;
19087;SDS011;9676;50.916;13.352;2023-10-09T08:00:17;18.60;;;14.60;;
19087;SDS011;9676;50.916;13.352;2023-10-09T08:03:36;16.60;;;14.50;;
19087;SDS011;9676;50.916;13.352;2023-10-09T08:06:27;15.83;;;14.10;;
19087;SDS011;9676;50.916;13.352;2023-10-09T08:09:53;17.83;;;14.90;;
19087;SDS011;9676;50.916;13.352;2023-10-09T08:13:01;19.13;;;14.10;;
19087;SDS011;9676;50.916;13.352;2023-10-09T08:16:14;18.27;;;15.37;;
19087;SDS011;9676;50.916;13.352;2023-10-09T08:19:11;18.97;;;15.30;;
19087;SDS011;9676;50.916;13.352;2023-10-09T08:22:16;16.17;;;14.30;;
19087;SDS011;9676;50.916;13.352;2023-10-09T08:25:22;19.20;;;13.80;;
19087;SDS011;9676;50.916;13.352;2023-10-09T08:28:16;15.70;;;13.17;;
19087;SDS011;9676;50.916;13.352;2023-10-09T08:31:34;16.53;;;14.10;;
19087;SDS011;9676;50.916;13.352;2023-10-09T08:34:33;14.87;;;13.27;;
19087;SDS011;9676;50.916;13.352;2023-10-09T08:37:40;16.73;;;13.50;;
19087;SDS011;9676;50.916;13.352;2023-10-09T08:40:30;17.93;;;13.87;;
19087;SDS011;9676;50.916;13.352;2023-10-09T08:43:24;15.50;;;13.90;;
19087;SDS011;9676;50.916;13.352;2023-10-09T08:46:19;16.47;;;14.50;;
19087;SDS011;9676;50.916;13.352;2023-10-09T08:49:10;16.07;;;13.47;;
19087;SDS011;9676;50.916;13.352;2023-10-09T08:52:02;16.37;;;13.43;;
19087;SDS011;9676;50.916;13.352;2023-10-09T08:54:53;15.37;;;13.77;;
19087;SDS011;9676;50.916;13.352;2023-10-09T08:57:42;20.60;;;13.70;;
19087;SDS011;9676;50.916;13.352;2023-10-09T09:00:33;14.70;;;13.10;;
19087;SDS011;9676;50.916;13.352;2023-10-09T09:03:23;18.20;;;14.33;;
19087;SDS011;9676;50.916;13.352;2023-10-09T09:06:13;17.70;;;13.93;;
19087;SDS011;9676;50.916;13.352;2023-10-09T09:09:09;17.07;;;13.67;;
19087;SDS011;9676;50.916;13.352;2023-10-09T09:12:03;15.33;;;13.10;;
19087;SDS011;9676;50.916;13.352;2023-10-09T09:14:55;15.10;;;13.50;;
19087;SDS011;9676;50.916;13.352;2023-10-09T09:17:45;13.70;;;12.30;;
19087;SDS011;9676;50.916;13.352;2023-10-09T09:20:37;14.90;;;12.73;;
19087;SDS011;9676;50.916;13.352;2023-10-09T09:23:28;14.77;;;12.40;;
19087;SDS011;9676;50.916;13.352;2023-10-09T09:26:18;14.90;;;12.80;;
19087;SDS011;9676;50.916;13.352;2023-10-09T09:29:38;13.47;;;12.17;;
19087;SDS011;9676;50.916;13.352;2023-10-09T09:32:30;14.00;;;12.43;;
19087;SDS011;9676;50.916;13.352;2023-10-09T09:35:24;14.30;;;11.90;;
19087;SDS011;9676;50.916;13.352;2023-10-09T09:38:15;13.47;;;11.97;;
19087;SDS011;9676;50.916;13.352;2023-10-09T09:41:05;13.73;;;12.37;;
19087;SDS011;9676;50.916;13.352;2023-10-09T09:43:56;13.50;;;12.20;;
19087;SDS011;9676;50.916;13.352;2023-10-09T09:46:49;16.33;;;12.93;;
19087;SDS011;9676;50.916;13.352;2023-10-09T09:49:41;14.03;;;12.60;;
19087;SDS011;9676;50.916;13.352;2023-10-09T09:52:31;14.00;;;12.00;;
19087;SDS011;9676;50.916;13.352;2023-10-09T09:55:28;15.20;;;12.80;;
19087;SDS011;9676;50.916;13.352;2023-10-09T09:58:23;14.80;;;13.17;;
19087;SDS011;9676;50.916;13.352;2023-10-09T10:01:20;16.57;;;12.80;;
19087;SDS011;9676;50.916;13.352;2023-10-09T10:04:16;16.00;;;13.30;;
19087;SDS011;9676;50.916;13.352;2023-10-09T10:07:09;17.77;;;13.67;;
19087;SDS011;9676;50.916;13.352;2023-10-09T10:10:03;14.47;;;12.80;;
19087;SDS011;9676;50.916;13.352;2023-10-09T10:17:00;19.40;;;16.13;;
19087;SDS011;9676;50.916;13.352;2023-10-09T10:20:06;18.03;;;15.60;;
19087;SDS011;9676;50.916;13.352;2023-10-09T10:23:16;16.30;;;13.67;;
19087;SDS011;9676;50.916;13.352;2023-10-09T10:26:17;14.57;;;13.07;;
19087;SDS011;9676;50.916;13.352;2023-10-09T10:29:15;15.70;;;14.00;;
19087;SDS011;9676;50.916;13.352;2023-10-09T10:32:13;16.63;;;13.83;;
19087;SDS011;9676;50.916;13.352;2023-10-09T10:35:09;14.23;;;12.73;;
19087;SDS011;9676;50.916;13.352;2023-10-09T10:37:58;15.77;;;13.20;;
19087;SDS011;9676;50.916;13.352;2023-10-09T10:41:11;16.07;;;13.00;;
19087;SDS011;9676;50.916;13.352;2023-10-09T10:44:05;15.40;;;13.00;;
19087;SDS011;9676;50.916;13.352;2023-10-09T10:47:08;14.70;;;13.10;;
19087;SDS011;9676;50.916;13.352;2023-10-09T10:50:14;16.07;;;13.53;;
19087;SDS011;9676;50.916;13.352;2023-10-09T10:53:23;14.40;;;12.90;;
19087;SDS011;9676;50.916;13.352;2023-10-09T10:56:23;15.07;;;12.53;;
19087;SDS011;9676;50.916;13.352;2023-10-09T10:59:22;14.40;;;12.90;;
19087;SDS011;9676;50.916;13.352;2023-10-09T11:02:17;15.20;;;13.40;;
19087;SDS011;9676;50.916;13.352;2023-10-09T11:05:10;14.73;;;13.23;;
19087;SDS011;9676;50.916;13.352;2023-10-09T11:08:12;14.83;;;12.90;;
19087;SDS011;9676;50.916;13.352;2023-10-09T11:11:11;14.63;;;12.93;;
19087;SDS011;9676;50.916;13.352;2023-10-09T11:14:08;17.03;;;13.90;;
19087;SDS011;9676;50.916;13.352;2023-10-09T11:17:02;16.80;;;13.83;;
19087;SDS011;9676;50.916;13.352;2023-10-09T11:20:11;14.57;;;13.07;;
19087;SDS011;9676;50.916;13.352;2023-10-09T11:23:21;15.20;;;13.10;;
19087;SDS011;9676;50.916;13.352;2023-10-09T11:26:17;16.47;;;13.80;;
19087;SDS011;9676;50.916;13.352;2023-10-09T11:29:14;14.73;;;13.07;;
19087;SDS011;9676;50.916;13.352;2023-10-09T11:32:04;16.10;;;13.27;;
19087;SDS011;9676;50.916;13.352;2023-10-09T11:35:09;13.73;;;12.40;;
19087;SDS011;9676;50.916;13.352;2023-10-09T11:38:02;14.70;;;12.27;;
19087;SDS011;9676;50.916;13.352;2023-10-09T11:41:13;15.77;;;12.70;;
19087;SDS011;9676;50.916;13.352;2023-10-09T11:44:12;15.20;;;13.03;;
19087;SDS011;9676;50.916;13.352;2023-10-09T11:47:07;13.43;;;12.10;;
19087;SDS011;9676;50.916;13.352;2023-10-09T11:50:12;18.83;;;13.40;;
19087;SDS011;9676;50.916;13.352;2023-10-09T11:53:01;14.50;;;12.50;;
19087;SDS011;9676;50.916;13.352;2023-10-09T11:56:06;15.13;;;12.97;;
19087;SDS011;9676;50.916;13.352;2023-10-09T11:59:02;14.00;;;12.57;;
19087;SDS011;9676;50.916;13.352;2023-10-09T12:01:52;14.87;;;12.80;;
19087;SDS011;9676;50.916;13.352;2023-10-09T12:04:48;15.37;;;13.03;;
19087;SDS011;9676;50.916;13.352;2023-10-09T12:07:38;15.73;;;12.10;;
19087;SDS011;9676;50.916;13.352;2023-10-09T12:10:27;13.27;;;11.87;;
19087;SDS011;9676;50.916;13.352;2023-10-09T12:13:17;15.07;;;12.57;;
19087;SDS011;9676;50.916;13.352;2023-10-09T12:16:08;15.97;;;12.57;;
19087;SDS011;9676;50.916;13.352;2023-10-09T12:18:57;15.40;;;12.67;;
19087;SDS011;9676;50.916;13.352;2023-10-09T12:21:49;18.27;;;12.20;;
19087;SDS011;9676;50.916;13.352;2023-10-09T12:24:41;13.10;;;11.80;;
19087;SDS011;9676;50.916;13.352;2023-10-09T12:27:33;16.00;;;12.13;;
19087;SDS011;9676;50.916;13.352;2023-10-09T12:30:22;15.40;;;12.30;;
19087;SDS011;9676;50.916;13.352;2023-10-09T12:33:16;14.30;;;12.80;;
19087;SDS011;9676;50.916;13.352;2023-10-09T12:36:11;15.47;;;13.07;;
19087;SDS011;9676;50.916;13.352;2023-10-09T12:39:07;18.20;;;16.03;;
19087;SDS011;9676;50.916;13.352;2023-10-09T12:42:04;15.00;;;13.30;;
19087;SDS011;9676;50.916;13.352;2023-10-09T12:44:56;13.90;;;12.40;;
19087;SDS011;9676;50.916;13.352;2023-10-09T12:47:45;14.40;;;11.90;;
19087;SDS011;9676;50.916;13.352;2023-10-09T12:50:37;13.10;;;11.63;;
19087;SDS011;9676;50.916;13.352;2023-10-09T12:53:29;12.50;;;11.30;;
19087;SDS011;9676;50.916;13.352;2023-10-09T12:56:19;13.30;;;11.90;;
19087;SDS011;9676;50.916;13.352;2023-10-09T12:59:09;12.57;;;11.27;;
19087;SDS011;9676;50.916;13.352;2023-10-09T13:02:03;13.80;;;10.57;;
19087;SDS011;9676;50.916;13.352;2023-10-09T13:04:53;12.50;;;11.10;;
19087;SDS011;9676;50.916;13.352;2023-10-09T13:07:44;12.47;;;11.13;;
19087;SDS011;9676;50.916;13.352;2023-10-09T13:10:34;12.50;;;11.23;;
19087;SDS011;9676;50.916;13.352;2023-10-09T13:13:26;13.07;;;11.40;;
19087;SDS011;9676;50.916;13.352;2023-10-09T13:16:29;12.60;;;11.23;;
19087;SDS011;9676;50.916;13.352;2023-10-09T13:19:19;12.40;;;11.20;;
19087;SDS011;9676;50.916;13.352;2023-10-09T13:22:12;13.97;;;10.90;;
19087;SDS011;9676;50.916;13.352;2023-10-09T13:25:03;12.80;;;11.50;;
19087;SDS011;9676;50.916;13.352;2023-10-09T13:27:53;13.30;;;11.13;;
19087;SDS011;9676;50.916;13.352;2023-10-09T13:30:42;13.13;;;11.07;;
19087;SDS011;9676;50.916;13.352;2023-10-09T13:33:36;12.77;;;11.37;;
19087;SDS011;9676;50.916;13.352;2023-10-09T13:36:26;12.83;;;11.40;;
19087;SDS011;9676;50.916;13.352;2023-10-09T13:39:18;13.13;;;11.73;;
19087;SDS011;9676;50.916;13.352;2023-10-09T13:42:13;13.40;;;12.00;;
19087;SDS011;9676;50.916;13.352;2023-10-09T13:45:03;14.73;;;11.60;;
19087;SDS011;9676;50.916;13.352;2023-10-09T13:48:03;15.23;;;11.40;;
19087;SDS011;9676;50.916;13.352;2023-10-09T13:50:57;13.20;;;11.90;;
19087;SDS011;9676;50.916;13.352;2023-10-09T13:53:50;12.93;;;11.63;;
19087;SDS011;9676;50.916;13.352;2023-10-09T13:56:39;13.00;;;11.60;;
19087;SDS011;9676;50.916;13.352;2023-10-09T13:59:30;13.00;;;11.80;;
19087;SDS011;9676;50.916;13.352;2023-10-09T14:02:22;13.00;;;11.60;;
19087;SDS011;9676;50.916;13.352;2023-10-09T14:05:16;14.00;;;11.60;;
19087;SDS011;9676;50.916;13.352;2023-10-09T14:08:07;13.60;;;12.20;;
19087;SDS011;9676;50.916;13.352;2023-10-09T14:10:57;12.97;;;11.63;;
19087;SDS011;9676;50.916;13.352;2023-10-09T14:13:47;13.10;;;11.73;;
19087;SDS011;9676;50.916;13.352;2023-10-09T14:16:54;13.27;;;11.87;;
19087;SDS011;9676;50.916;13.352;2023-10-09T14:19:47;13.30;;;11.67;;
19087;SDS011;9676;50.916;13.352;2023-10-09T14:22:37;13.67;;;11.50;;
19087;SDS011;9676;50.916;13.352;2023-10-09T14:25:28;15.10;;;12.00;;
19087;SDS011;9676;50.916;13.352;2023-10-09T14:28:18;12.70;;;11.20;;
19087;SDS011;9676;50.916;13.352;2023-10-09T14:31:07;12.73;;;11.30;;
19087;SDS011;9676;50.916;13.352;2023-10-09T14:34:01;12.50;;;11.10;;
19087;SDS011;9676;50.916;13.352;2023-10-09T14:36:50;13.90;;;11.97;;
19087;SDS011;9676;50.916;13.352;2023-10-09T14:39:39;13.40;;;11.43;;
19087;SDS011;9676;50.916;13.352;2023-10-09T14:42:29;13.93;;;12.43;;
19087;SDS011;9676;50.916;13.352;2023-10-09T14:45:18;15.33;;;11.97;;
19087;SDS011;9676;50.916;13.352;2023-10-09T14:48:09;13.90;;;12.20;;
19087;SDS011;9676;50.916;13.352;2023-10-09T14:51:00;20.33;;;16.17;;
19087;SDS011;9676;50.916;13.352;2023-10-09T14:53:55;16.40;;;13.80;;
19087;SDS011;9676;50.916;13.352;2023-10-09T14:56:49;14.70;;;13.10;;
19087;SDS011;9676;50.916;13.352;2023-10-09T14:59:42;15.30;;;13.03;;
19087;SDS011;9676;50.916;13.352;2023-10-09T15:02:31;14.57;;;12.40;;
19087;SDS011;9676;50.916;13.352;2023-10-09T15:05:21;14.23;;;12.73;;
19087;SDS011;9676;50.916;13.352;2023-10-09T15:08:12;13.37;;;12.00;;
19087;SDS011;9676;50.916;13.352;2023-10-09T15:11:02;13.57;;;12.17;;
19087;SDS011;9676;50.916;13.352;2023-10-09T15:13:51;12.60;;;11.30;;
19087;SDS011;9676;50.916;13.352;2023-10-09T15:16:41;13.30;;;11.90;;
19087;SDS011;9676;50.916;13.352;2023-10-09T15:19:31;14.37;;;11.80;;
19087;SDS011;9676;50.916;13.352;2023-10-09T15:22:20;13.50;;;12.20;;
19087;SDS011;9676;50.916;13.352;2023-10-09T15:25:11;12.70;;;11.40;;
19087;SDS011;9676;50.916;13.352;2023-10-09T15:28:03;12.70;;;11.47;;
19087;SDS011;9676;50.916;13.352;2023-10-09T15:30:52;14.50;;;12.60;;
19087;SDS011;9676;50.916;13.352;2023-10-09T15:33:42;13.47;;;12.03;;
19087;SDS011;9676;50.916;13.352;2023-10-09T15:36:31;12.77;;;11.47;;
19087;SDS011;9676;50.916;13.352;2023-10-09T15:39:21;12.17;;;10.97;;
19087;SDS011;9676;50.916;13.352;2023-10-09T15:42:12;12.97;;;11.67;;
19087;SDS011;9676;50.916;13.352;2023-10-09T15:45:04;13.27;;;11.73;;
19087;SDS011;9676;50.916;13.352;2023-10-09T15:47:55;12.80;;;11.40;;
19087;SDS011;9676;50.916;13.352;2023-10-09T15:50:45;13.87;;;11.60;;
19087;SDS011;9676;50.916;13.352;2023-10-09T15:53:38;13.27;;;11.90;;
19087;SDS011;9676;50.916;13.352;2023-10-09T15:56:28;12.90;;;10.90;;
19087;SDS011;9676;50.916;13.352;2023-10-09T15:59:19;12.80;;;11.50;;
19087;SDS011;9676;50.916;13.352;2023-10-09T16:02:09;12.80;;;11.50;;
19087;SDS011;9676;50.916;13.352;2023-10-09T16:04:58;12.83;;;11.37;;
19087;SDS011;9676;50.916;13.352;2023-10-09T16:07:48;12.77;;;11.47;;
19087;SDS011;9676;50.916;13.352;2023-10-09T16:10:38;12.57;;;11.37;;
19087;SDS011;9676;50.916;13.352;2023-10-09T16:13:27;12.17;;;10.97;;
19087;SDS011;9676;50.916;13.352;2023-10-09T16:16:25;12.40;;;11.20;;
19087;SDS011;9676;50.916;13.352;2023-10-09T16:19:16;12.27;;;11.03;;
19087;SDS011;9676;50.916;13.352;2023-10-09T16:22:07;12.00;;;10.80;;
19087;SDS011;9676;50.916;13.352;2023-10-09T16:25:00;12.37;;;10.73;;
19087;SDS011;9676;50.916;13.352;2023-10-09T16:27:56;12.23;;;11.03;;
19087;SDS011;9676;50.916;13.352;2023-10-09T16:30:46;12.13;;;10.93;;
19087;SDS011;9676;50.916;13.352;2023-10-09T16:33:37;11.77;;;10.67;;
19087;SDS011;9676;50.916;13.352;2023-10-09T16:36:26;12.43;;;11.13;;
19087;SDS011;9676;50.916;13.352;2023-10-09T16:39:16;12.70;;;11.47;;
19087;SDS011;9676;50.916;13.352;2023-10-09T16:42:10;12.50;;;11.30;;
19087;SDS011;9676;50.916;13.352;2023-10-09T16:45:01;12.40;;;11.20;;
19087;SDS011;9676;50.916;13.352;2023-10-09T16:47:50;13.03;;;11.73;;
19087;SDS011;9676;50.916;13.352;2023-10-09T16:50:44;12.30;;;11.10;;
19087;SDS011;9676;50.916;13.352;2023-10-09T16:53:34;11.80;;;10.70;;
19087;SDS011;9676;50.916;13.352;2023-10-09T16:56:26;12.80;;;11.50;;
19087;SDS011;9676;50.916;13.352;2023-10-09T16:59:20;12.10;;;10.90;;
19087;SDS011;9676;50.916;13.352;2023-10-09T17:02:10;12.33;;;11.03;;
19087;SDS011;9676;50.916;13.352;2023-10-09T17:05:01;11.73;;;10.63;;
19087;SDS011;9676;50.916;13.352;2023-10-09T17:07:53;11.93;;;10.83;;
19087;SDS011;9676;50.916;13.352;2023-10-09T17:10:43;11.70;;;10.50;;
19087;SDS011;9676;50.916;13.352;2023-10-09T17:13:33;12.00;;;10.90;;